sensor_id;sensor_type;location;lat;lon;timestamp;P1;durP1;ratioP1;P2;durP2;ratioP2
21562;SDS011;10942;47.894;11.424;2023-11-21T00:00:38;7.47;;;1.70;;
21562;SDS011;10942;47.894;11.424;2023-11-21T00:03:04;8.95;;;2.03;;
21562;SDS011;10942;47.894;11.424;2023-11-21T00:05:30;5.88;;;1.45;;
21562;SDS011;10942;47.894;11.424;2023-11-21T00:07:56;6.40;;;1.95;;
21562;SDS011;10942;47.894;11.424;2023-11-21T00:10:22;6.05;;;1.73;;
21562;SDS011;10942;47.894;11.424;2023-11-21T00:12:48;6.25;;;1.90;;
21562;SDS011;10942;47.894;11.424;2023-11-21T00:15:14;9.27;;;1.70;;
21562;SDS011;10942;47.894;11.424;2023-11-21T00:17:40;6.90;;;1.90;;
21562;SDS011;10942;47.894;11.424;2023-11-21T00:20:08;10.63;;;2.13;;
21562;SDS011;10942;47.894;11.424;2023-11-21T00:22:37;9.23;;;1.65;;
21562;SDS011;10942;47.894;11.424;2023-11-21T00:25:03;9.07;;;1.88;;
21562;SDS011;10942;47.894;11.424;2023-11-21T00:27:30;6.72;;;1.63;;
21562;SDS011;10942;47.894;11.424;2023-11-21T00:29:56;5.70;;;1.60;;
21562;SDS011;10942;47.894;11.424;2023-11-21T00:32:22;5.78;;;1.27;;
21562;SDS011;10942;47.894;11.424;2023-11-21T00:34:48;4.72;;;1.40;;
21562;SDS011;10942;47.894;11.424;2023-11-21T00:37:15;6.70;;;1.40;;
21562;SDS011;10942;47.894;11.424;2023-11-21T00:39:41;4.45;;;1.42;;
21562;SDS011;10942;47.894;11.424;2023-11-21T00:42:07;6.82;;;1.60;;
21562;SDS011;10942;47.894;11.424;2023-11-21T00:44:33;8.80;;;1.60;;
21562;SDS011;10942;47.894;11.424;2023-11-21T00:47:00;8.77;;;2.22;;
21562;SDS011;10942;47.894;11.424;2023-11-21T00:49:26;8.45;;;1.67;;
21562;SDS011;10942;47.894;11.424;2023-11-21T00:51:53;6.75;;;1.70;;
21562;SDS011;10942;47.894;11.424;2023-11-21T00:54:19;7.72;;;1.67;;
21562;SDS011;10942;47.894;11.424;2023-11-21T00:56:45;3.92;;;1.30;;
21562;SDS011;10942;47.894;11.424;2023-11-21T00:59:13;7.50;;;1.88;;
21562;SDS011;10942;47.894;11.424;2023-11-21T01:01:40;6.18;;;1.58;;
21562;SDS011;10942;47.894;11.424;2023-11-21T01:04:06;8.93;;;1.77;;
21562;SDS011;10942;47.894;11.424;2023-11-21T01:06:33;9.63;;;1.88;;
21562;SDS011;10942;47.894;11.424;2023-11-21T01:08:59;10.05;;;1.55;;
21562;SDS011;10942;47.894;11.424;2023-11-21T01:11:25;7.00;;;1.20;;
21562;SDS011;10942;47.894;11.424;2023-11-21T01:13:51;5.93;;;1.58;;
21562;SDS011;10942;47.894;11.424;2023-11-21T01:16:18;10.88;;;1.63;;
21562;SDS011;10942;47.894;11.424;2023-11-21T01:18:44;6.82;;;1.67;;
21562;SDS011;10942;47.894;11.424;2023-11-21T01:21:11;7.85;;;1.70;;
21562;SDS011;10942;47.894;11.424;2023-11-21T01:23:37;7.78;;;2.60;;
21562;SDS011;10942;47.894;11.424;2023-11-21T01:26:03;9.02;;;2.47;;
21562;SDS011;10942;47.894;11.424;2023-11-21T01:28:29;6.80;;;2.25;;
21562;SDS011;10942;47.894;11.424;2023-11-21T01:30:56;12.52;;;2.33;;
21562;SDS011;10942;47.894;11.424;2023-11-21T01:33:23;4.75;;;1.63;;
21562;SDS011;10942;47.894;11.424;2023-11-21T01:35:51;5.32;;;1.75;;
21562;SDS011;10942;47.894;11.424;2023-11-21T01:38:19;6.88;;;1.98;;
21562;SDS011;10942;47.894;11.424;2023-11-21T01:40:45;5.50;;;1.58;;
21562;SDS011;10942;47.894;11.424;2023-11-21T01:43:11;7.25;;;2.00;;
21562;SDS011;10942;47.894;11.424;2023-11-21T01:45:38;2.63;;;1.02;;
21562;SDS011;10942;47.894;11.424;2023-11-21T01:48:04;7.93;;;2.10;;
21562;SDS011;10942;47.894;11.424;2023-11-21T01:50:31;7.03;;;1.80;;
21562;SDS011;10942;47.894;11.424;2023-11-21T01:53:01;8.50;;;2.08;;
21562;SDS011;10942;47.894;11.424;2023-11-21T01:55:28;8.65;;;2.13;;
21562;SDS011;10942;47.894;11.424;2023-11-21T01:57:55;6.93;;;1.70;;
21562;SDS011;10942;47.894;11.424;2023-11-21T02:00:25;6.32;;;1.70;;
21562;SDS011;10942;47.894;11.424;2023-11-21T02:02:54;11.85;;;2.03;;
21562;SDS011;10942;47.894;11.424;2023-11-21T02:05:21;6.03;;;1.60;;
21562;SDS011;10942;47.894;11.424;2023-11-21T02:07:48;8.40;;;1.92;;
21562;SDS011;10942;47.894;11.424;2023-11-21T02:10:14;7.82;;;2.25;;
21562;SDS011;10942;47.894;11.424;2023-11-21T02:12:41;7.15;;;1.92;;
21562;SDS011;10942;47.894;11.424;2023-11-21T02:15:08;8.70;;;1.92;;
21562;SDS011;10942;47.894;11.424;2023-11-21T02:17:42;7.93;;;2.08;;
21562;SDS011;10942;47.894;11.424;2023-11-21T02:20:10;6.55;;;1.95;;
21562;SDS011;10942;47.894;11.424;2023-11-21T02:22:41;10.02;;;1.90;;
21562;SDS011;10942;47.894;11.424;2023-11-21T02:25:08;7.38;;;2.08;;
21562;SDS011;10942;47.894;11.424;2023-11-21T02:27:34;6.55;;;1.88;;
21562;SDS011;10942;47.894;11.424;2023-11-21T02:30:01;7.25;;;1.80;;
21562;SDS011;10942;47.894;11.424;2023-11-21T02:32:29;7.95;;;1.63;;
21562;SDS011;10942;47.894;11.424;2023-11-21T02:34:57;7.18;;;1.52;;
21562;SDS011;10942;47.894;11.424;2023-11-21T02:37:26;3.92;;;1.42;;
21562;SDS011;10942;47.894;11.424;2023-11-21T02:39:52;6.53;;;1.92;;
21562;SDS011;10942;47.894;11.424;2023-11-21T02:42:18;6.72;;;1.90;;
21562;SDS011;10942;47.894;11.424;2023-11-21T02:44:44;7.88;;;1.77;;
21562;SDS011;10942;47.894;11.424;2023-11-21T02:47:10;6.20;;;2.05;;
21562;SDS011;10942;47.894;11.424;2023-11-21T02:49:37;7.70;;;1.92;;
21562;SDS011;10942;47.894;11.424;2023-11-21T02:52:03;6.30;;;2.20;;
21562;SDS011;10942;47.894;11.424;2023-11-21T02:54:29;8.30;;;2.80;;
21562;SDS011;10942;47.894;11.424;2023-11-21T02:56:55;13.20;;;3.10;;
21562;SDS011;10942;47.894;11.424;2023-11-21T02:59:21;9.65;;;2.58;;
21562;SDS011;10942;47.894;11.424;2023-11-21T03:01:47;6.78;;;2.45;;
21562;SDS011;10942;47.894;11.424;2023-11-21T03:04:14;5.97;;;2.00;;
21562;SDS011;10942;47.894;11.424;2023-11-21T03:06:43;5.22;;;1.90;;
21562;SDS011;10942;47.894;11.424;2023-11-21T03:09:09;5.93;;;2.58;;
21562;SDS011;10942;47.894;11.424;2023-11-21T03:11:37;7.30;;;3.00;;
21562;SDS011;10942;47.894;11.424;2023-11-21T03:14:04;4.78;;;1.65;;
21562;SDS011;10942;47.894;11.424;2023-11-21T03:16:33;8.68;;;2.45;;
21562;SDS011;10942;47.894;11.424;2023-11-21T03:19:00;7.35;;;2.45;;
21562;SDS011;10942;47.894;11.424;2023-11-21T03:21:26;4.75;;;1.90;;
21562;SDS011;10942;47.894;11.424;2023-11-21T03:23:54;8.15;;;3.00;;
21562;SDS011;10942;47.894;11.424;2023-11-21T03:26:20;7.00;;;2.90;;
21562;SDS011;10942;47.894;11.424;2023-11-21T03:28:46;7.80;;;2.50;;
21562;SDS011;10942;47.894;11.424;2023-11-21T03:31:13;7.28;;;2.45;;
21562;SDS011;10942;47.894;11.424;2023-11-21T03:33:40;6.40;;;2.50;;
21562;SDS011;10942;47.894;11.424;2023-11-21T03:36:06;4.80;;;2.03;;
21562;SDS011;10942;47.894;11.424;2023-11-21T03:38:33;6.18;;;1.85;;
21562;SDS011;10942;47.894;11.424;2023-11-21T03:40:59;4.55;;;1.50;;
21562;SDS011;10942;47.894;11.424;2023-11-21T03:43:27;5.07;;;1.48;;
21562;SDS011;10942;47.894;11.424;2023-11-21T03:45:53;7.57;;;1.90;;
21562;SDS011;10942;47.894;11.424;2023-11-21T03:48:19;8.90;;;2.88;;
21562;SDS011;10942;47.894;11.424;2023-11-21T03:50:45;3.60;;;1.45;;
21562;SDS011;10942;47.894;11.424;2023-11-21T03:53:12;9.32;;;2.10;;
21562;SDS011;10942;47.894;11.424;2023-11-21T03:55:38;5.35;;;1.95;;
21562;SDS011;10942;47.894;11.424;2023-11-21T03:58:04;7.93;;;1.98;;
21562;SDS011;10942;47.894;11.424;2023-11-21T04:00:31;5.32;;;1.50;;
21562;SDS011;10942;47.894;11.424;2023-11-21T04:02:57;4.35;;;1.90;;
21562;SDS011;10942;47.894;11.424;2023-11-21T04:05:24;6.47;;;2.08;;
21562;SDS011;10942;47.894;11.424;2023-11-21T04:07:50;3.90;;;1.90;;
21562;SDS011;10942;47.894;11.424;2023-11-21T04:10:17;6.45;;;2.10;;
21562;SDS011;10942;47.894;11.424;2023-11-21T04:12:43;6.13;;;2.00;;
21562;SDS011;10942;47.894;11.424;2023-11-21T04:15:10;5.43;;;1.40;;
21562;SDS011;10942;47.894;11.424;2023-11-21T04:17:38;8.88;;;1.98;;
21562;SDS011;10942;47.894;11.424;2023-11-21T04:20:05;6.45;;;2.13;;
21562;SDS011;10942;47.894;11.424;2023-11-21T04:22:38;6.50;;;1.67;;
21562;SDS011;10942;47.894;11.424;2023-11-21T04:25:12;8.80;;;2.20;;
21562;SDS011;10942;47.894;11.424;2023-11-21T04:27:42;5.32;;;2.17;;
21562;SDS011;10942;47.894;11.424;2023-11-21T04:30:09;6.60;;;1.88;;
21562;SDS011;10942;47.894;11.424;2023-11-21T04:32:35;6.20;;;2.03;;
21562;SDS011;10942;47.894;11.424;2023-11-21T04:35:01;8.13;;;2.00;;
21562;SDS011;10942;47.894;11.424;2023-11-21T04:37:29;7.38;;;2.20;;
21562;SDS011;10942;47.894;11.424;2023-11-21T04:39:55;7.47;;;2.88;;
21562;SDS011;10942;47.894;11.424;2023-11-21T04:42:21;8.45;;;2.50;;
21562;SDS011;10942;47.894;11.424;2023-11-21T04:44:48;9.90;;;3.22;;
21562;SDS011;10942;47.894;11.424;2023-11-21T04:47:14;4.60;;;1.70;;
21562;SDS011;10942;47.894;11.424;2023-11-21T04:49:41;5.88;;;1.52;;
21562;SDS011;10942;47.894;11.424;2023-11-21T04:52:12;6.90;;;1.70;;
21562;SDS011;10942;47.894;11.424;2023-11-21T04:54:38;5.82;;;1.70;;
21562;SDS011;10942;47.894;11.424;2023-11-21T04:57:05;6.70;;;1.83;;
21562;SDS011;10942;47.894;11.424;2023-11-21T04:59:32;5.60;;;1.80;;
21562;SDS011;10942;47.894;11.424;2023-11-21T05:01:59;7.82;;;2.05;;
21562;SDS011;10942;47.894;11.424;2023-11-21T05:04:25;6.55;;;2.00;;
21562;SDS011;10942;47.894;11.424;2023-11-21T05:06:52;5.38;;;1.77;;
21562;SDS011;10942;47.894;11.424;2023-11-21T05:09:18;5.43;;;2.17;;
21562;SDS011;10942;47.894;11.424;2023-11-21T05:11:44;8.07;;;3.10;;
21562;SDS011;10942;47.894;11.424;2023-11-21T05:14:10;10.18;;;2.53;;
21562;SDS011;10942;47.894;11.424;2023-11-21T05:16:36;7.38;;;2.20;;
21562;SDS011;10942;47.894;11.424;2023-11-21T05:19:03;5.10;;;1.40;;
21562;SDS011;10942;47.894;11.424;2023-11-21T05:21:30;2.85;;;1.02;;
21562;SDS011;10942;47.894;11.424;2023-11-21T05:23:57;2.03;;;0.57;;
21562;SDS011;10942;47.894;11.424;2023-11-21T05:26:23;2.35;;;0.70;;
21562;SDS011;10942;47.894;11.424;2023-11-21T05:28:49;4.65;;;0.93;;
21562;SDS011;10942;47.894;11.424;2023-11-21T05:31:16;2.10;;;0.60;;
21562;SDS011;10942;47.894;11.424;2023-11-21T05:33:42;3.33;;;0.60;;
21562;SDS011;10942;47.894;11.424;2023-11-21T05:36:08;3.17;;;0.80;;
21562;SDS011;10942;47.894;11.424;2023-11-21T05:38:35;5.07;;;0.73;;
21562;SDS011;10942;47.894;11.424;2023-11-21T05:41:02;2.97;;;0.52;;
21562;SDS011;10942;47.894;11.424;2023-11-21T05:43:29;2.72;;;0.63;;
21562;SDS011;10942;47.894;11.424;2023-11-21T05:45:56;1.77;;;0.60;;
21562;SDS011;10942;47.894;11.424;2023-11-21T05:48:22;3.05;;;0.75;;
21562;SDS011;10942;47.894;11.424;2023-11-21T05:50:48;3.95;;;0.80;;
21562;SDS011;10942;47.894;11.424;2023-11-21T05:53:15;2.38;;;0.70;;
21562;SDS011;10942;47.894;11.424;2023-11-21T05:55:41;1.40;;;0.60;;
21562;SDS011;10942;47.894;11.424;2023-11-21T05:58:08;1.52;;;0.60;;
21562;SDS011;10942;47.894;11.424;2023-11-21T06:00:34;2.85;;;0.55;;
21562;SDS011;10942;47.894;11.424;2023-11-21T06:03:01;6.25;;;2.10;;
21562;SDS011;10942;47.894;11.424;2023-11-21T06:05:27;4.03;;;1.73;;
21562;SDS011;10942;47.894;11.424;2023-11-21T06:07:54;5.32;;;1.42;;
21562;SDS011;10942;47.894;11.424;2023-11-21T06:10:24;7.45;;;2.33;;
21562;SDS011;10942;47.894;11.424;2023-11-21T06:12:51;3.17;;;1.52;;
21562;SDS011;10942;47.894;11.424;2023-11-21T06:15:17;5.03;;;1.63;;
21562;SDS011;10942;47.894;11.424;2023-11-21T06:17:48;3.55;;;1.77;;
21562;SDS011;10942;47.894;11.424;2023-11-21T06:20:17;6.55;;;3.05;;
21562;SDS011;10942;47.894;11.424;2023-11-21T06:22:44;5.40;;;3.45;;
21562;SDS011;10942;47.894;11.424;2023-11-21T06:25:11;7.05;;;3.40;;
21562;SDS011;10942;47.894;11.424;2023-11-21T06:27:38;5.25;;;1.88;;
21562;SDS011;10942;47.894;11.424;2023-11-21T06:30:05;5.32;;;1.88;;
21562;SDS011;10942;47.894;11.424;2023-11-21T06:32:38;5.22;;;1.23;;
21562;SDS011;10942;47.894;11.424;2023-11-21T06:35:07;3.38;;;0.93;;
21562;SDS011;10942;47.894;11.424;2023-11-21T06:37:35;2.30;;;0.55;;
21562;SDS011;10942;47.894;11.424;2023-11-21T06:40:01;5.28;;;0.85;;
21562;SDS011;10942;47.894;11.424;2023-11-21T06:42:29;6.00;;;1.42;;
21562;SDS011;10942;47.894;11.424;2023-11-21T06:44:55;5.00;;;1.40;;
21562;SDS011;10942;47.894;11.424;2023-11-21T06:47:25;3.13;;;1.27;;
21562;SDS011;10942;47.894;11.424;2023-11-21T06:49:51;2.83;;;1.02;;
21562;SDS011;10942;47.894;11.424;2023-11-21T06:52:18;3.47;;;1.10;;
21562;SDS011;10942;47.894;11.424;2023-11-21T06:54:44;2.95;;;1.30;;
21562;SDS011;10942;47.894;11.424;2023-11-21T06:57:10;3.33;;;1.05;;
21562;SDS011;10942;47.894;11.424;2023-11-21T06:59:36;3.42;;;1.27;;
21562;SDS011;10942;47.894;11.424;2023-11-21T07:02:02;5.57;;;1.90;;
21562;SDS011;10942;47.894;11.424;2023-11-21T07:04:31;3.63;;;1.40;;
21562;SDS011;10942;47.894;11.424;2023-11-21T07:07:03;8.25;;;2.38;;
21562;SDS011;10942;47.894;11.424;2023-11-21T07:09:29;6.80;;;2.08;;
21562;SDS011;10942;47.894;11.424;2023-11-21T07:11:56;4.47;;;2.13;;
21562;SDS011;10942;47.894;11.424;2023-11-21T07:14:21;4.15;;;1.90;;
21562;SDS011;10942;47.894;11.424;2023-11-21T07:16:47;4.00;;;1.30;;
21562;SDS011;10942;47.894;11.424;2023-11-21T07:19:13;4.97;;;1.83;;
21562;SDS011;10942;47.894;11.424;2023-11-21T07:21:40;6.15;;;1.88;;
21562;SDS011;10942;47.894;11.424;2023-11-21T07:24:06;6.53;;;2.55;;
21562;SDS011;10942;47.894;11.424;2023-11-21T07:26:33;9.82;;;2.97;;
21562;SDS011;10942;47.894;11.424;2023-11-21T07:29:00;6.97;;;2.20;;
21562;SDS011;10942;47.894;11.424;2023-11-21T07:31:26;7.15;;;2.42;;
21562;SDS011;10942;47.894;11.424;2023-11-21T07:33:52;6.25;;;2.25;;
21562;SDS011;10942;47.894;11.424;2023-11-21T07:36:18;6.63;;;2.33;;
21562;SDS011;10942;47.894;11.424;2023-11-21T07:38:45;5.72;;;1.60;;
21562;SDS011;10942;47.894;11.424;2023-11-21T07:41:11;7.28;;;2.90;;
21562;SDS011;10942;47.894;11.424;2023-11-21T07:43:40;6.88;;;3.13;;
21562;SDS011;10942;47.894;11.424;2023-11-21T07:46:10;4.32;;;2.05;;
21562;SDS011;10942;47.894;11.424;2023-11-21T07:48:37;4.97;;;1.73;;
21562;SDS011;10942;47.894;11.424;2023-11-21T07:51:04;6.13;;;1.65;;
21562;SDS011;10942;47.894;11.424;2023-11-21T07:53:30;4.95;;;2.60;;
21562;SDS011;10942;47.894;11.424;2023-11-21T07:55:56;6.35;;;2.03;;
21562;SDS011;10942;47.894;11.424;2023-11-21T07:58:22;8.70;;;3.97;;
21562;SDS011;10942;47.894;11.424;2023-11-21T08:00:49;8.18;;;3.90;;
21562;SDS011;10942;47.894;11.424;2023-11-21T08:03:15;7.72;;;2.45;;
21562;SDS011;10942;47.894;11.424;2023-11-21T08:05:41;4.60;;;1.90;;
21562;SDS011;10942;47.894;11.424;2023-11-21T08:08:07;4.45;;;1.52;;
21562;SDS011;10942;47.894;11.424;2023-11-21T08:10:34;6.07;;;1.48;;
21562;SDS011;10942;47.894;11.424;2023-11-21T08:13:00;6.95;;;1.73;;
21562;SDS011;10942;47.894;11.424;2023-11-21T08:15:27;5.47;;;1.50;;
21562;SDS011;10942;47.894;11.424;2023-11-21T08:17:53;3.97;;;1.95;;
21562;SDS011;10942;47.894;11.424;2023-11-21T08:20:18;4.53;;;1.98;;
21562;SDS011;10942;47.894;11.424;2023-11-21T08:22:44;6.22;;;2.30;;
21562;SDS011;10942;47.894;11.424;2023-11-21T08:25:12;5.40;;;2.63;;
21562;SDS011;10942;47.894;11.424;2023-11-21T08:27:38;4.13;;;1.90;;
21562;SDS011;10942;47.894;11.424;2023-11-21T08:30:04;3.83;;;1.90;;
21562;SDS011;10942;47.894;11.424;2023-11-21T08:32:30;7.25;;;2.38;;
21562;SDS011;10942;47.894;11.424;2023-11-21T08:34:58;3.40;;;1.50;;
21562;SDS011;10942;47.894;11.424;2023-11-21T08:37:24;5.20;;;2.22;;
21562;SDS011;10942;47.894;11.424;2023-11-21T08:39:52;4.80;;;1.80;;
21562;SDS011;10942;47.894;11.424;2023-11-21T08:42:18;3.38;;;1.23;;
21562;SDS011;10942;47.894;11.424;2023-11-21T08:44:44;4.28;;;1.02;;
21562;SDS011;10942;47.894;11.424;2023-11-21T08:47:10;2.50;;;0.65;;
21562;SDS011;10942;47.894;11.424;2023-11-21T08:49:36;3.95;;;0.80;;
21562;SDS011;10942;47.894;11.424;2023-11-21T08:52:03;3.35;;;0.50;;
21562;SDS011;10942;47.894;11.424;2023-11-21T08:54:30;2.22;;;0.70;;
21562;SDS011;10942;47.894;11.424;2023-11-21T08:56:56;1.35;;;0.60;;
21562;SDS011;10942;47.894;11.424;2023-11-21T08:59:23;1.42;;;0.50;;
21562;SDS011;10942;47.894;11.424;2023-11-21T09:01:49;2.20;;;0.68;;
21562;SDS011;10942;47.894;11.424;2023-11-21T09:04:16;1.95;;;0.70;;
21562;SDS011;10942;47.894;11.424;2023-11-21T09:06:41;2.05;;;0.70;;
21562;SDS011;10942;47.894;11.424;2023-11-21T09:09:07;2.38;;;1.17;;
21562;SDS011;10942;47.894;11.424;2023-11-21T09:11:35;2.78;;;1.20;;
21562;SDS011;10942;47.894;11.424;2023-11-21T09:14:02;2.90;;;0.70;;
21562;SDS011;10942;47.894;11.424;2023-11-21T09:16:31;1.52;;;0.50;;
21562;SDS011;10942;47.894;11.424;2023-11-21T09:18:57;0.88;;;0.60;;
21562;SDS011;10942;47.894;11.424;2023-11-21T09:21:23;1.48;;;0.40;;
21562;SDS011;10942;47.894;11.424;2023-11-21T09:23:50;2.30;;;0.50;;
21562;SDS011;10942;47.894;11.424;2023-11-21T09:26:16;1.92;;;0.57;;
21562;SDS011;10942;47.894;11.424;2023-11-21T09:28:45;1.20;;;0.68;;
21562;SDS011;10942;47.894;11.424;2023-11-21T09:31:13;2.78;;;0.52;;
21562;SDS011;10942;47.894;11.424;2023-11-21T09:33:44;2.58;;;0.70;;
21562;SDS011;10942;47.894;11.424;2023-11-21T09:36:13;2.17;;;0.80;;
21562;SDS011;10942;47.894;11.424;2023-11-21T09:38:39;3.42;;;0.70;;
21562;SDS011;10942;47.894;11.424;2023-11-21T09:44:00;4.30;;;1.20;;
21562;SDS011;10942;47.894;11.424;2023-11-21T09:46:32;2.25;;;0.90;;
21562;SDS011;10942;47.894;11.424;2023-11-21T09:48:59;3.38;;;1.15;;
21562;SDS011;10942;47.894;11.424;2023-11-21T09:51:30;8.80;;;4.93;;
21562;SDS011;10942;47.894;11.424;2023-11-21T09:53:58;20.10;;;10.48;;
21562;SDS011;10942;47.894;11.424;2023-11-21T09:56:27;6.65;;;3.28;;
21562;SDS011;10942;47.894;11.424;2023-11-21T09:58:55;10.32;;;6.00;;
21562;SDS011;10942;47.894;11.424;2023-11-21T10:01:22;6.90;;;3.00;;
21562;SDS011;10942;47.894;11.424;2023-11-21T10:03:50;2.53;;;1.38;;
21562;SDS011;10942;47.894;11.424;2023-11-21T10:06:16;3.65;;;2.10;;
21562;SDS011;10942;47.894;11.424;2023-11-21T10:08:43;3.53;;;1.60;;
21562;SDS011;10942;47.894;11.424;2023-11-21T10:11:09;2.35;;;1.40;;
21562;SDS011;10942;47.894;11.424;2023-11-21T10:13:37;1.98;;;0.80;;
21562;SDS011;10942;47.894;11.424;2023-11-21T10:16:05;4.80;;;1.58;;
21562;SDS011;10942;47.894;11.424;2023-11-21T10:18:33;2.20;;;0.98;;
21562;SDS011;10942;47.894;11.424;2023-11-21T10:21:00;1.77;;;0.98;;
21562;SDS011;10942;47.894;11.424;2023-11-21T10:23:26;1.63;;;0.85;;
21562;SDS011;10942;47.894;11.424;2023-11-21T10:25:52;3.47;;;1.70;;
21562;SDS011;10942;47.894;11.424;2023-11-21T10:28:20;4.15;;;1.00;;
21562;SDS011;10942;47.894;11.424;2023-11-21T10:30:46;1.48;;;0.60;;
21562;SDS011;10942;47.894;11.424;2023-11-21T10:33:12;1.10;;;0.70;;
21562;SDS011;10942;47.894;11.424;2023-11-21T10:38:07;1.65;;;0.60;;
21562;SDS011;10942;47.894;11.424;2023-11-21T10:40:37;2.20;;;0.60;;
21562;SDS011;10942;47.894;11.424;2023-11-21T10:43:08;2.20;;;0.88;;
21562;SDS011;10942;47.894;11.424;2023-11-21T10:45:34;4.28;;;2.63;;
21562;SDS011;10942;47.894;11.424;2023-11-21T10:48:07;3.45;;;1.33;;
21562;SDS011;10942;47.894;11.424;2023-11-21T10:50:37;3.55;;;1.40;;
21562;SDS011;10942;47.894;11.424;2023-11-21T10:53:03;5.65;;;2.10;;
21562;SDS011;10942;47.894;11.424;2023-11-21T10:55:30;4.43;;;2.30;;
21562;SDS011;10942;47.894;11.424;2023-11-21T10:57:58;4.22;;;1.70;;
21562;SDS011;10942;47.894;11.424;2023-11-21T11:00:25;2.53;;;1.63;;
21562;SDS011;10942;47.894;11.424;2023-11-21T11:02:52;4.15;;;1.83;;
21562;SDS011;10942;47.894;11.424;2023-11-21T11:05:25;4.60;;;1.40;;
21562;SDS011;10942;47.894;11.424;2023-11-21T11:08:07;4.78;;;1.85;;
21562;SDS011;10942;47.894;11.424;2023-11-21T11:10:36;4.95;;;1.08;;
21562;SDS011;10942;47.894;11.424;2023-11-21T11:13:02;3.25;;;1.30;;
21562;SDS011;10942;47.894;11.424;2023-11-21T11:15:29;3.78;;;1.60;;
21562;SDS011;10942;47.894;11.424;2023-11-21T11:17:55;3.20;;;1.85;;
21562;SDS011;10942;47.894;11.424;2023-11-21T11:20:25;3.00;;;1.40;;
21562;SDS011;10942;47.894;11.424;2023-11-21T11:25:41;1.45;;;0.80;;
21562;SDS011;10942;47.894;11.424;2023-11-21T11:28:12;3.00;;;1.10;;
21562;SDS011;10942;47.894;11.424;2023-11-21T11:30:47;2.80;;;1.25;;
21562;SDS011;10942;47.894;11.424;2023-11-21T11:33:34;3.03;;;0.88;;
21562;SDS011;10942;47.894;11.424;2023-11-21T11:36:34;4.18;;;1.20;;
21562;SDS011;10942;47.894;11.424;2023-11-21T11:39:26;3.33;;;0.80;;
21562;SDS011;10942;47.894;11.424;2023-11-21T11:41:55;1.65;;;0.90;;
21562;SDS011;10942;47.894;11.424;2023-11-21T11:44:46;1.98;;;0.60;;
21562;SDS011;10942;47.894;11.424;2023-11-21T11:50:04;1.30;;;0.70;;
21562;SDS011;10942;47.894;11.424;2023-11-21T11:52:51;1.85;;;0.85;;
21562;SDS011;10942;47.894;11.424;2023-11-21T11:55:23;2.78;;;0.80;;
21562;SDS011;10942;47.894;11.424;2023-11-21T11:57:53;2.55;;;0.77;;
21562;SDS011;10942;47.894;11.424;2023-11-21T12:02:55;1.52;;;0.63;;
21562;SDS011;10942;47.894;11.424;2023-11-21T12:05:28;2.90;;;0.75;;
21562;SDS011;10942;47.894;11.424;2023-11-21T12:07:59;2.15;;;0.60;;
21562;SDS011;10942;47.894;11.424;2023-11-21T12:10:30;1.55;;;0.60;;
21562;SDS011;10942;47.894;11.424;2023-11-21T12:13:05;1.35;;;0.70;;
21562;SDS011;10942;47.894;11.424;2023-11-21T12:15:35;2.15;;;0.80;;
21562;SDS011;10942;47.894;11.424;2023-11-21T12:18:02;1.38;;;0.70;;
21562;SDS011;10942;47.894;11.424;2023-11-21T12:20:28;1.88;;;0.60;;
21562;SDS011;10942;47.894;11.424;2023-11-21T12:22:57;2.40;;;0.70;;
21562;SDS011;10942;47.894;11.424;2023-11-21T12:25:28;1.92;;;0.68;;
21562;SDS011;10942;47.894;11.424;2023-11-21T12:27:57;1.80;;;0.70;;
21562;SDS011;10942;47.894;11.424;2023-11-21T12:30:27;1.48;;;0.52;;
21562;SDS011;10942;47.894;11.424;2023-11-21T12:32:58;3.90;;;1.60;;
21562;SDS011;10942;47.894;11.424;2023-11-21T12:35:25;1.52;;;0.90;;
21562;SDS011;10942;47.894;11.424;2023-11-21T12:37:52;4.57;;;1.15;;
21562;SDS011;10942;47.894;11.424;2023-11-21T12:40:20;2.15;;;0.80;;
21562;SDS011;10942;47.894;11.424;2023-11-21T12:42:48;3.03;;;1.20;;
21562;SDS011;10942;47.894;11.424;2023-11-21T12:47:54;2.40;;;0.90;;
21562;SDS011;10942;47.894;11.424;2023-11-21T12:50:32;2.22;;;1.33;;
21562;SDS011;10942;47.894;11.424;2023-11-21T12:52:59;3.67;;;1.20;;
21562;SDS011;10942;47.894;11.424;2023-11-21T12:55:29;2.08;;;0.80;;
21562;SDS011;10942;47.894;11.424;2023-11-21T12:58:02;1.90;;;0.70;;
21562;SDS011;10942;47.894;11.424;2023-11-21T13:00:40;2.30;;;1.00;;
21562;SDS011;10942;47.894;11.424;2023-11-21T13:03:11;2.80;;;1.25;;
21562;SDS011;10942;47.894;11.424;2023-11-21T13:05:41;2.15;;;1.17;;
21562;SDS011;10942;47.894;11.424;2023-11-21T13:08:11;3.03;;;1.02;;
21562;SDS011;10942;47.894;11.424;2023-11-21T13:10:41;2.42;;;1.00;;
21562;SDS011;10942;47.894;11.424;2023-11-21T13:13:09;2.42;;;0.95;;
21562;SDS011;10942;47.894;11.424;2023-11-21T13:15:46;2.53;;;1.10;;
21562;SDS011;10942;47.894;11.424;2023-11-21T13:18:17;3.58;;;1.25;;
21562;SDS011;10942;47.894;11.424;2023-11-21T13:20:43;2.85;;;0.68;;
21562;SDS011;10942;47.894;11.424;2023-11-21T13:23:10;2.05;;;1.00;;
21562;SDS011;10942;47.894;11.424;2023-11-21T13:25:41;2.72;;;0.80;;
21562;SDS011;10942;47.894;11.424;2023-11-21T13:28:07;2.78;;;0.90;;
21562;SDS011;10942;47.894;11.424;2023-11-21T13:30:34;2.60;;;1.05;;
21562;SDS011;10942;47.894;11.424;2023-11-21T13:33:03;1.65;;;0.93;;
21562;SDS011;10942;47.894;11.424;2023-11-21T13:35:33;2.03;;;0.70;;
21562;SDS011;10942;47.894;11.424;2023-11-21T13:38:20;2.13;;;0.77;;
21562;SDS011;10942;47.894;11.424;2023-11-21T13:40:50;1.77;;;1.13;;
21562;SDS011;10942;47.894;11.424;2023-11-21T13:43:22;1.70;;;0.73;;
21562;SDS011;10942;47.894;11.424;2023-11-21T13:45:50;0.98;;;0.43;;
21562;SDS011;10942;47.894;11.424;2023-11-21T13:48:26;1.15;;;0.80;;
21562;SDS011;10942;47.894;11.424;2023-11-21T13:51:05;3.17;;;0.77;;
21562;SDS011;10942;47.894;11.424;2023-11-21T13:53:48;3.53;;;0.90;;
21562;SDS011;10942;47.894;11.424;2023-11-21T13:56:18;2.70;;;0.95;;
21562;SDS011;10942;47.894;11.424;2023-11-21T13:58:53;4.82;;;1.30;;
21562;SDS011;10942;47.894;11.424;2023-11-21T14:01:20;2.35;;;1.20;;
21562;SDS011;10942;47.894;11.424;2023-11-21T14:06:42;2.58;;;1.10;;
21562;SDS011;10942;47.894;11.424;2023-11-21T14:09:20;1.48;;;0.80;;
21562;SDS011;10942;47.894;11.424;2023-11-21T14:11:49;1.25;;;0.88;;
21562;SDS011;10942;47.894;11.424;2023-11-21T14:14:16;2.58;;;0.90;;
21562;SDS011;10942;47.894;11.424;2023-11-21T14:16:44;1.00;;;0.80;;
21562;SDS011;10942;47.894;11.424;2023-11-21T14:19:09;1.42;;;0.60;;
21562;SDS011;10942;47.894;11.424;2023-11-21T14:21:40;2.75;;;0.65;;
21562;SDS011;10942;47.894;11.424;2023-11-21T14:24:13;2.67;;;0.80;;
21562;SDS011;10942;47.894;11.424;2023-11-21T14:26:42;1.23;;;0.90;;
21562;SDS011;10942;47.894;11.424;2023-11-21T14:29:10;1.95;;;1.10;;
21562;SDS011;10942;47.894;11.424;2023-11-21T14:31:39;2.53;;;1.42;;
21562;SDS011;10942;47.894;11.424;2023-11-21T14:34:06;3.03;;;1.23;;
21562;SDS011;10942;47.894;11.424;2023-11-21T14:36:35;3.25;;;1.50;;
21562;SDS011;10942;47.894;11.424;2023-11-21T14:39:04;2.90;;;0.85;;
21562;SDS011;10942;47.894;11.424;2023-11-21T14:41:41;1.85;;;0.80;;
21562;SDS011;10942;47.894;11.424;2023-11-21T14:44:09;1.40;;;0.60;;
21562;SDS011;10942;47.894;11.424;2023-11-21T14:46:37;1.10;;;0.90;;
21562;SDS011;10942;47.894;11.424;2023-11-21T14:49:05;1.73;;;1.08;;
21562;SDS011;10942;47.894;11.424;2023-11-21T14:51:59;1.92;;;1.48;;
21562;SDS011;10942;47.894;11.424;2023-11-21T14:54:32;3.78;;;2.00;;
21562;SDS011;10942;47.894;11.424;2023-11-21T14:57:12;3.15;;;1.48;;